Lake Los Angeles, California
Current Conditions -  °F | °C
As of 10:53 PM on Sunday 23 Nov 2014 (Local Time) from KPMD Reporting Station
Clear Clear  
Wind Chill: 42°   Ceiling: Unl
Heat Index: 42°   Visibility: 10mi
Dew Point: 16°   Wind: 3mph
Humidity: 35%   Direction: 190°S
Pressure: 30.27"   Gusts: NA
Location:  34.4834°N, 118.08°W
Report Text: KPMD 240653Z AUTO 19003KT 10SM CLR 06/M09 A3027 RMK AO2 SLP244 T00561089
Loading
Personal Weather Stations






























Interactive Weather Map New forecast layout! Learn more

10-Day Weather Forecast

Advertisements
Track Severe Weather on mobile